sensor_id;sensor_type;location;lat;lon;timestamp;temperature;humidity
16827;DHT22;8530;49.540;8.576;2023-10-13T00:01:07;18.10;96.20
16827;DHT22;8530;49.540;8.576;2023-10-13T00:03:37;18.10;96.30
16827;DHT22;8530;49.540;8.576;2023-10-13T00:06:06;18.20;96.30
16827;DHT22;8530;49.540;8.576;2023-10-13T00:08:33;18.20;96.30
16827;DHT22;8530;49.540;8.576;2023-10-13T00:11:02;18.20;96.30
16827;DHT22;8530;49.540;8.576;2023-10-13T00:13:31;18.20;96.40
16827;DHT22;8530;49.540;8.576;2023-10-13T00:16:07;18.20;96.40
16827;DHT22;8530;49.540;8.576;2023-10-13T00:18:36;18.20;96.40
16827;DHT22;8530;49.540;8.576;2023-10-13T00:21:07;18.20;96.40
16827;DHT22;8530;49.540;8.576;2023-10-13T00:23:39;18.20;96.40
16827;DHT22;8530;49.540;8.576;2023-10-13T00:26:09;18.20;96.40
16827;DHT22;8530;49.540;8.576;2023-10-13T00:28:37;18.30;96.50
16827;DHT22;8530;49.540;8.576;2023-10-13T00:31:12;18.30;96.50
16827;DHT22;8530;49.540;8.576;2023-10-13T00:33:40;18.30;96.50
16827;DHT22;8530;49.540;8.576;2023-10-13T00:36:08;18.30;96.40
16827;DHT22;8530;49.540;8.576;2023-10-13T00:38:42;18.40;96.50
16827;DHT22;8530;49.540;8.576;2023-10-13T00:41:13;18.40;96.50
16827;DHT22;8530;49.540;8.576;2023-10-13T00:43:47;18.40;96.40
16827;DHT22;8530;49.540;8.576;2023-10-13T00:46:28;18.50;96.50
16827;DHT22;8530;49.540;8.576;2023-10-13T00:48:58;18.50;96.40
16827;DHT22;8530;49.540;8.576;2023-10-13T00:51:25;18.50;96.40
16827;DHT22;8530;49.540;8.576;2023-10-13T00:54:02;18.50;96.40
16827;DHT22;8530;49.540;8.576;2023-10-13T00:56:34;18.50;96.40
16827;DHT22;8530;49.540;8.576;2023-10-13T00:59:07;18.50;96.50
16827;DHT22;8530;49.540;8.576;2023-10-13T01:01:35;18.50;96.30
16827;DHT22;8530;49.540;8.576;2023-10-13T01:04:02;18.50;96.30
16827;DHT22;8530;49.540;8.576;2023-10-13T01:06:30;18.50;96.30
16827;DHT22;8530;49.540;8.576;2023-10-13T01:08:59;18.50;96.30
16827;DHT22;8530;49.540;8.576;2023-10-13T01:11:36;18.40;96.30
16827;DHT22;8530;49.540;8.576;2023-10-13T01:14:03;18.50;96.30
16827;DHT22;8530;49.540;8.576;2023-10-13T01:16:31;18.40;96.20
16827;DHT22;8530;49.540;8.576;2023-10-13T01:18:58;18.40;96.50
16827;DHT22;8530;49.540;8.576;2023-10-13T01:21:25;18.40;96.20
16827;DHT22;8530;49.540;8.576;2023-10-13T01:23:54;18.40;96.20
16827;DHT22;8530;49.540;8.576;2023-10-13T01:26:20;18.40;96.20
16827;DHT22;8530;49.540;8.576;2023-10-13T01:28:50;18.30;96.20
16827;DHT22;8530;49.540;8.576;2023-10-13T01:31:16;18.30;96.20
16827;DHT22;8530;49.540;8.576;2023-10-13T01:33:54;18.30;96.20
16827;DHT22;8530;49.540;8.576;2023-10-13T01:36:21;18.30;96.20
16827;DHT22;8530;49.540;8.576;2023-10-13T01:38:48;18.30;96.20
16827;DHT22;8530;49.540;8.576;2023-10-13T01:41:17;18.20;96.10
16827;DHT22;8530;49.540;8.576;2023-10-13T01:43:43;18.20;96.10
16827;DHT22;8530;49.540;8.576;2023-10-13T01:46:10;18.20;96.10
16827;DHT22;8530;49.540;8.576;2023-10-13T01:48:39;18.10;96.10
16827;DHT22;8530;49.540;8.576;2023-10-13T01:51:05;18.10;96.20
16827;DHT22;8530;49.540;8.576;2023-10-13T01:53:36;18.10;96.20
16827;DHT22;8530;49.540;8.576;2023-10-13T01:56:02;18.20;96.20
16827;DHT22;8530;49.540;8.576;2023-10-13T01:58:32;18.20;96.20
16827;DHT22;8530;49.540;8.576;2023-10-13T02:00:59;18.20;96.20
16827;DHT22;8530;49.540;8.576;2023-10-13T02:03:27;18.20;96.20
16827;DHT22;8530;49.540;8.576;2023-10-13T02:05:55;18.20;96.20
16827;DHT22;8530;49.540;8.576;2023-10-13T02:08:30;18.30;96.20
16827;DHT22;8530;49.540;8.576;2023-10-13T02:10:57;18.30;96.10
16827;DHT22;8530;49.540;8.576;2023-10-13T02:13:26;18.40;96.10
16827;DHT22;8530;49.540;8.576;2023-10-13T02:15:56;18.40;96.10
16827;DHT22;8530;49.540;8.576;2023-10-13T02:18:24;18.40;96.00
16827;DHT22;8530;49.540;8.576;2023-10-13T02:20:53;18.40;95.90
16827;DHT22;8530;49.540;8.576;2023-10-13T02:23:29;18.40;95.80
16827;DHT22;8530;49.540;8.576;2023-10-13T02:25:56;18.40;95.80
16827;DHT22;8530;49.540;8.576;2023-10-13T02:28:26;18.30;95.70
16827;DHT22;8530;49.540;8.576;2023-10-13T02:30:55;18.20;95.70
16827;DHT22;8530;49.540;8.576;2023-10-13T02:33:23;18.20;95.70
16827;DHT22;8530;49.540;8.576;2023-10-13T02:35:56;18.10;95.70
16827;DHT22;8530;49.540;8.576;2023-10-13T02:38:22;18.00;95.60
16827;DHT22;8530;49.540;8.576;2023-10-13T02:40:55;17.90;95.70
16827;DHT22;8530;49.540;8.576;2023-10-13T02:43:22;17.90;95.70
16827;DHT22;8530;49.540;8.576;2023-10-13T02:45:52;17.90;95.80
16827;DHT22;8530;49.540;8.576;2023-10-13T02:48:25;17.90;95.80
16827;DHT22;8530;49.540;8.576;2023-10-13T02:50:59;17.90;95.80
16827;DHT22;8530;49.540;8.576;2023-10-13T02:53:31;17.90;95.80
16827;DHT22;8530;49.540;8.576;2023-10-13T02:55:58;17.90;95.80
16827;DHT22;8530;49.540;8.576;2023-10-13T02:58:24;17.90;95.80
16827;DHT22;8530;49.540;8.576;2023-10-13T03:01:06;17.90;96.00
16827;DHT22;8530;49.540;8.576;2023-10-13T03:03:44;18.00;95.80
16827;DHT22;8530;49.540;8.576;2023-10-13T03:06:15;18.00;95.70
16827;DHT22;8530;49.540;8.576;2023-10-13T03:08:41;18.00;95.90
16827;DHT22;8530;49.540;8.576;2023-10-13T03:11:10;17.90;95.60
16827;DHT22;8530;49.540;8.576;2023-10-13T03:13:37;17.90;95.50
16827;DHT22;8530;49.540;8.576;2023-10-13T03:16:15;17.90;95.50
16827;DHT22;8530;49.540;8.576;2023-10-13T03:18:46;17.90;95.50
16827;DHT22;8530;49.540;8.576;2023-10-13T03:21:20;17.80;95.50
16827;DHT22;8530;49.540;8.576;2023-10-13T03:23:56;17.70;95.40
16827;DHT22;8530;49.540;8.576;2023-10-13T03:26:22;17.70;95.40
16827;DHT22;8530;49.540;8.576;2023-10-13T03:28:48;17.70;95.40
16827;DHT22;8530;49.540;8.576;2023-10-13T03:31:18;17.70;95.40
16827;DHT22;8530;49.540;8.576;2023-10-13T03:33:54;17.70;95.40
16827;DHT22;8530;49.540;8.576;2023-10-13T03:36:25;17.70;95.30
16827;DHT22;8530;49.540;8.576;2023-10-13T03:39:09;17.70;95.30
16827;DHT22;8530;49.540;8.576;2023-10-13T03:41:37;17.70;95.20
16827;DHT22;8530;49.540;8.576;2023-10-13T03:44:05;17.70;95.20
16827;DHT22;8530;49.540;8.576;2023-10-13T03:46:38;17.70;95.20
16827;DHT22;8530;49.540;8.576;2023-10-13T03:49:08;17.70;95.10
16827;DHT22;8530;49.540;8.576;2023-10-13T03:51:38;17.70;95.10
16827;DHT22;8530;49.540;8.576;2023-10-13T03:54:05;17.80;95.10
16827;DHT22;8530;49.540;8.576;2023-10-13T03:56:33;17.70;95.00
16827;DHT22;8530;49.540;8.576;2023-10-13T03:59:05;17.80;94.90
16827;DHT22;8530;49.540;8.576;2023-10-13T04:01:35;17.80;95.10
16827;DHT22;8530;49.540;8.576;2023-10-13T04:04:13;17.80;94.80
16827;DHT22;8530;49.540;8.576;2023-10-13T04:06:41;17.90;94.80
16827;DHT22;8530;49.540;8.576;2023-10-13T04:09:18;17.80;94.70
16827;DHT22;8530;49.540;8.576;2023-10-13T04:12:00;17.90;94.70
16827;DHT22;8530;49.540;8.576;2023-10-13T04:14:47;17.90;94.70
16827;DHT22;8530;49.540;8.576;2023-10-13T04:17:37;17.90;94.60
16827;DHT22;8530;49.540;8.576;2023-10-13T04:20:12;17.90;94.60
16827;DHT22;8530;49.540;8.576;2023-10-13T04:22:40;17.90;94.60
16827;DHT22;8530;49.540;8.576;2023-10-13T04:25:22;18.00;94.60
16827;DHT22;8530;49.540;8.576;2023-10-13T04:28:00;18.00;94.60
16827;DHT22;8530;49.540;8.576;2023-10-13T04:30:41;18.00;94.60
16827;DHT22;8530;49.540;8.576;2023-10-13T04:33:25;18.10;94.60
16827;DHT22;8530;49.540;8.576;2023-10-13T04:36:16;18.10;94.60
16827;DHT22;8530;49.540;8.576;2023-10-13T04:38:48;18.10;94.50
16827;DHT22;8530;49.540;8.576;2023-10-13T04:41:26;18.10;94.50
16827;DHT22;8530;49.540;8.576;2023-10-13T04:43:57;18.20;94.80
16827;DHT22;8530;49.540;8.576;2023-10-13T04:46:30;18.20;94.50
16827;DHT22;8530;49.540;8.576;2023-10-13T04:49:20;18.20;94.50
16827;DHT22;8530;49.540;8.576;2023-10-13T04:51:55;18.20;94.50
16827;DHT22;8530;49.540;8.576;2023-10-13T04:54:25;18.20;94.50
16827;DHT22;8530;49.540;8.576;2023-10-13T04:56:58;18.20;94.50
16827;DHT22;8530;49.540;8.576;2023-10-13T04:59:42;18.30;94.50
16827;DHT22;8530;49.540;8.576;2023-10-13T05:02:27;18.30;94.40
16827;DHT22;8530;49.540;8.576;2023-10-13T05:05:19;18.30;94.40
16827;DHT22;8530;49.540;8.576;2023-10-13T05:08:08;18.30;94.30
16827;DHT22;8530;49.540;8.576;2023-10-13T05:11:07;18.30;94.20
16827;DHT22;8530;49.540;8.576;2023-10-13T05:13:51;18.30;94.20
16827;DHT22;8530;49.540;8.576;2023-10-13T05:16:36;18.30;94.10
16827;DHT22;8530;49.540;8.576;2023-10-13T05:19:20;18.30;94.10
16827;DHT22;8530;49.540;8.576;2023-10-13T05:22:04;18.30;94.00
16827;DHT22;8530;49.540;8.576;2023-10-13T05:24:49;18.20;93.80
16827;DHT22;8530;49.540;8.576;2023-10-13T05:27:33;18.20;93.70
16827;DHT22;8530;49.540;8.576;2023-10-13T05:30:17;18.10;93.60
16827;DHT22;8530;49.540;8.576;2023-10-13T05:33:02;18.00;93.50
16827;DHT22;8530;49.540;8.576;2023-10-13T05:35:46;18.00;93.40
16827;DHT22;8530;49.540;8.576;2023-10-13T05:38:30;18.00;93.30
16827;DHT22;8530;49.540;8.576;2023-10-13T05:41:16;18.00;93.20
16827;DHT22;8530;49.540;8.576;2023-10-13T05:44:00;18.00;93.00
16827;DHT22;8530;49.540;8.576;2023-10-13T05:46:45;18.00;92.90
16827;DHT22;8530;49.540;8.576;2023-10-13T05:49:48;18.00;92.80
16827;DHT22;8530;49.540;8.576;2023-10-13T05:52:16;18.10;92.70
16827;DHT22;8530;49.540;8.576;2023-10-13T05:55:05;18.00;92.50
16827;DHT22;8530;49.540;8.576;2023-10-13T05:57:51;18.00;92.40
16827;DHT22;8530;49.540;8.576;2023-10-13T06:00:40;18.10;92.30
16827;DHT22;8530;49.540;8.576;2023-10-13T06:03:24;18.00;92.00
16827;DHT22;8530;49.540;8.576;2023-10-13T06:06:08;18.00;91.90
16827;DHT22;8530;49.540;8.576;2023-10-13T06:08:53;18.00;91.80
16827;DHT22;8530;49.540;8.576;2023-10-13T06:11:37;18.00;91.60
16827;DHT22;8530;49.540;8.576;2023-10-13T06:14:22;18.10;91.50
16827;DHT22;8530;49.540;8.576;2023-10-13T06:17:06;18.10;91.30
16827;DHT22;8530;49.540;8.576;2023-10-13T06:19:51;18.20;91.10
16827;DHT22;8530;49.540;8.576;2023-10-13T06:22:35;18.30;91.00
16827;DHT22;8530;49.540;8.576;2023-10-13T06:25:19;18.40;90.80
16827;DHT22;8530;49.540;8.576;2023-10-13T06:28:03;18.40;90.60
16827;DHT22;8530;49.540;8.576;2023-10-13T06:30:56;18.50;90.40
16827;DHT22;8530;49.540;8.576;2023-10-13T06:33:23;18.60;90.10
16827;DHT22;8530;49.540;8.576;2023-10-13T06:35:55;18.60;90.00
16827;DHT22;8530;49.540;8.576;2023-10-13T06:38:22;18.70;89.60
16827;DHT22;8530;49.540;8.576;2023-10-13T06:40:48;18.70;89.10
16827;DHT22;8530;49.540;8.576;2023-10-13T06:43:16;18.80;88.80
16827;DHT22;8530;49.540;8.576;2023-10-13T06:45:43;18.90;88.30
16827;DHT22;8530;49.540;8.576;2023-10-13T06:48:17;19.00;88.00
16827;DHT22;8530;49.540;8.576;2023-10-13T06:50:48;19.00;87.40
16827;DHT22;8530;49.540;8.576;2023-10-13T06:53:17;19.10;86.90
16827;DHT22;8530;49.540;8.576;2023-10-13T06:55:44;19.10;86.40
16827;DHT22;8530;49.540;8.576;2023-10-13T06:58:12;19.20;86.00
16827;DHT22;8530;49.540;8.576;2023-10-13T07:00:39;19.30;85.50
16827;DHT22;8530;49.540;8.576;2023-10-13T07:03:07;19.40;84.90
16827;DHT22;8530;49.540;8.576;2023-10-13T07:05:44;19.50;84.40
16827;DHT22;8530;49.540;8.576;2023-10-13T07:08:13;19.60;83.90
16827;DHT22;8530;49.540;8.576;2023-10-13T07:10:48;19.60;83.30
16827;DHT22;8530;49.540;8.576;2023-10-13T07:13:17;19.70;82.60
16827;DHT22;8530;49.540;8.576;2023-10-13T07:15:45;19.80;82.30
16827;DHT22;8530;49.540;8.576;2023-10-13T07:18:12;20.00;81.80
16827;DHT22;8530;49.540;8.576;2023-10-13T07:20:41;20.20;81.20
16827;DHT22;8530;49.540;8.576;2023-10-13T07:23:12;20.50;80.60
16827;DHT22;8530;49.540;8.576;2023-10-13T07:25:51;20.60;79.60
16827;DHT22;8530;49.540;8.576;2023-10-13T07:28:19;20.80;78.60
16827;DHT22;8530;49.540;8.576;2023-10-13T07:30:46;20.90;78.10
16827;DHT22;8530;49.540;8.576;2023-10-13T07:33:36;21.10;77.40
16827;DHT22;8530;49.540;8.576;2023-10-13T07:36:05;21.20;76.50
16827;DHT22;8530;49.540;8.576;2023-10-13T07:38:42;21.30;75.60
16827;DHT22;8530;49.540;8.576;2023-10-13T07:41:09;21.30;74.80
16827;DHT22;8530;49.540;8.576;2023-10-13T07:43:41;21.30;74.00
16827;DHT22;8530;49.540;8.576;2023-10-13T07:46:10;21.30;73.40
16827;DHT22;8530;49.540;8.576;2023-10-13T07:48:38;21.40;72.90
16827;DHT22;8530;49.540;8.576;2023-10-13T07:51:07;21.50;72.30
16827;DHT22;8530;49.540;8.576;2023-10-13T07:53:37;21.60;71.60
16827;DHT22;8530;49.540;8.576;2023-10-13T07:56:07;21.80;71.00
16827;DHT22;8530;49.540;8.576;2023-10-13T07:58:37;22.10;70.60
16827;DHT22;8530;49.540;8.576;2023-10-13T08:01:14;22.60;71.00
16827;DHT22;8530;49.540;8.576;2023-10-13T08:03:44;23.50;71.70
16827;DHT22;8530;49.540;8.576;2023-10-13T08:06:12;24.80;72.60
16827;DHT22;8530;49.540;8.576;2023-10-13T08:08:46;26.10;70.70
16827;DHT22;8530;49.540;8.576;2023-10-13T08:11:17;26.90;66.70
16827;DHT22;8530;49.540;8.576;2023-10-13T08:14:00;27.10;62.00
16827;DHT22;8530;49.540;8.576;2023-10-13T08:16:36;27.30;59.70
16827;DHT22;8530;49.540;8.576;2023-10-13T08:19:20;27.70;57.90
16827;DHT22;8530;49.540;8.576;2023-10-13T08:21:53;27.50;55.00
16827;DHT22;8530;49.540;8.576;2023-10-13T08:24:23;27.20;53.00
16827;DHT22;8530;49.540;8.576;2023-10-13T08:26:55;27.10;52.20
16827;DHT22;8530;49.540;8.576;2023-10-13T08:29:40;27.10;51.10
16827;DHT22;8530;49.540;8.576;2023-10-13T08:32:35;26.80;49.80
16827;DHT22;8530;49.540;8.576;2023-10-13T08:35:09;26.40;48.60
16827;DHT22;8530;49.540;8.576;2023-10-13T08:37:48;26.30;48.40
16827;DHT22;8530;49.540;8.576;2023-10-13T08:40:27;26.50;48.40
16827;DHT22;8530;49.540;8.576;2023-10-13T08:43:12;26.90;48.00
16827;DHT22;8530;49.540;8.576;2023-10-13T08:45:39;27.00;46.90
16827;DHT22;8530;49.540;8.576;2023-10-13T08:48:24;26.90;46.00
16827;DHT22;8530;49.540;8.576;2023-10-13T08:50:58;26.70;45.20
16827;DHT22;8530;49.540;8.576;2023-10-13T08:53:35;26.40;44.70
16827;DHT22;8530;49.540;8.576;2023-10-13T08:56:12;25.90;44.30
16827;DHT22;8530;49.540;8.576;2023-10-13T08:58:45;25.60;44.30
16827;DHT22;8530;49.540;8.576;2023-10-13T09:01:31;25.20;44.40
16827;DHT22;8530;49.540;8.576;2023-10-13T09:04:03;25.00;44.70
16827;DHT22;8530;49.540;8.576;2023-10-13T09:06:47;24.80;44.90
16827;DHT22;8530;49.540;8.576;2023-10-13T09:09:26;24.60;45.00
16827;DHT22;8530;49.540;8.576;2023-10-13T09:12:11;24.60;45.30
16827;DHT22;8530;49.540;8.576;2023-10-13T09:14:39;24.40;45.40
16827;DHT22;8530;49.540;8.576;2023-10-13T09:17:09;24.40;45.60
16827;DHT22;8530;49.540;8.576;2023-10-13T09:19:48;24.40;45.90
16827;DHT22;8530;49.540;8.576;2023-10-13T09:22:25;24.40;46.10
16827;DHT22;8530;49.540;8.576;2023-10-13T09:25:01;24.40;46.10
16827;DHT22;8530;49.540;8.576;2023-10-13T09:27:29;24.40;46.20
16827;DHT22;8530;49.540;8.576;2023-10-13T09:30:00;24.50;46.40
16827;DHT22;8530;49.540;8.576;2023-10-13T09:32:31;24.50;46.40
16827;DHT22;8530;49.540;8.576;2023-10-13T09:35:01;24.60;46.40
16827;DHT22;8530;49.540;8.576;2023-10-13T09:37:32;24.60;46.40
16827;DHT22;8530;49.540;8.576;2023-10-13T09:39:59;24.70;46.40
16827;DHT22;8530;49.540;8.576;2023-10-13T09:42:46;24.80;46.30
16827;DHT22;8530;49.540;8.576;2023-10-13T09:45:14;24.70;46.10
16827;DHT22;8530;49.540;8.576;2023-10-13T09:47:44;24.80;46.10
16827;DHT22;8530;49.540;8.576;2023-10-13T09:50:13;24.80;45.90
16827;DHT22;8530;49.540;8.576;2023-10-13T09:52:50;24.80;45.70
16827;DHT22;8530;49.540;8.576;2023-10-13T09:55:23;24.90;45.60
16827;DHT22;8530;49.540;8.576;2023-10-13T09:57:58;25.00;45.40
16827;DHT22;8530;49.540;8.576;2023-10-13T10:00:32;25.00;45.20
16827;DHT22;8530;49.540;8.576;2023-10-13T10:03:17;25.10;45.00
16827;DHT22;8530;49.540;8.576;2023-10-13T10:06:05;25.20;44.60
16827;DHT22;8530;49.540;8.576;2023-10-13T10:08:32;25.20;44.40
16827;DHT22;8530;49.540;8.576;2023-10-13T10:11:29;25.30;44.20
16827;DHT22;8530;49.540;8.576;2023-10-13T10:14:07;25.40;43.90
16827;DHT22;8530;49.540;8.576;2023-10-13T10:16:56;25.60;43.80
16827;DHT22;8530;49.540;8.576;2023-10-13T10:19:26;25.70;43.40
16827;DHT22;8530;49.540;8.576;2023-10-13T10:22:01;25.80;43.20
16827;DHT22;8530;49.540;8.576;2023-10-13T10:24:30;25.90;42.80
16827;DHT22;8530;49.540;8.576;2023-10-13T10:26:59;26.10;42.70
16827;DHT22;8530;49.540;8.576;2023-10-13T10:29:25;26.20;42.40
16827;DHT22;8530;49.540;8.576;2023-10-13T10:31:53;26.20;42.20
16827;DHT22;8530;49.540;8.576;2023-10-13T10:34:20;26.10;42.00
16827;DHT22;8530;49.540;8.576;2023-10-13T10:36:48;26.10;41.90
16827;DHT22;8530;49.540;8.576;2023-10-13T10:39:19;26.20;41.90
16827;DHT22;8530;49.540;8.576;2023-10-13T10:41:53;26.30;41.70
16827;DHT22;8530;49.540;8.576;2023-10-13T10:44:26;26.30;41.40
16827;DHT22;8530;49.540;8.576;2023-10-13T10:47:10;26.50;41.20
16827;DHT22;8530;49.540;8.576;2023-10-13T10:49:37;26.60;40.90
16827;DHT22;8530;49.540;8.576;2023-10-13T10:52:09;26.70;40.70
16827;DHT22;8530;49.540;8.576;2023-10-13T10:54:43;26.70;40.40
16827;DHT22;8530;49.540;8.576;2023-10-13T10:57:17;26.70;40.30
16827;DHT22;8530;49.540;8.576;2023-10-13T10:59:44;26.80;40.20
16827;DHT22;8530;49.540;8.576;2023-10-13T11:02:12;26.90;40.10
16827;DHT22;8530;49.540;8.576;2023-10-13T11:04:44;27.00;39.80
16827;DHT22;8530;49.540;8.576;2023-10-13T11:07:21;27.20;39.60
16827;DHT22;8530;49.540;8.576;2023-10-13T11:09:49;27.30;39.20
16827;DHT22;8530;49.540;8.576;2023-10-13T11:12:19;27.30;39.00
16827;DHT22;8530;49.540;8.576;2023-10-13T11:15:02;27.30;38.60
16827;DHT22;8530;49.540;8.576;2023-10-13T11:17:32;27.30;38.40
16827;DHT22;8530;49.540;8.576;2023-10-13T11:20:18;27.40;38.40
16827;DHT22;8530;49.540;8.576;2023-10-13T11:22:51;27.50;38.30
16827;DHT22;8530;49.540;8.576;2023-10-13T11:25:23;27.50;38.10
16827;DHT22;8530;49.540;8.576;2023-10-13T11:27:55;27.60;38.00
16827;DHT22;8530;49.540;8.576;2023-10-13T11:30:24;27.90;38.00
16827;DHT22;8530;49.540;8.576;2023-10-13T11:33:01;28.10;37.60
16827;DHT22;8530;49.540;8.576;2023-10-13T11:35:31;28.30;37.30
16827;DHT22;8530;49.540;8.576;2023-10-13T11:38:14;28.40;37.00
16827;DHT22;8530;49.540;8.576;2023-10-13T11:40:51;28.50;36.70
16827;DHT22;8530;49.540;8.576;2023-10-13T11:43:32;28.50;36.60
16827;DHT22;8530;49.540;8.576;2023-10-13T11:46:05;28.50;36.40
16827;DHT22;8530;49.540;8.576;2023-10-13T11:48:41;28.50;36.20
16827;DHT22;8530;49.540;8.576;2023-10-13T11:51:10;28.50;36.10
16827;DHT22;8530;49.540;8.576;2023-10-13T11:53:43;28.60;35.90
16827;DHT22;8530;49.540;8.576;2023-10-13T11:56:10;28.80;35.60
16827;DHT22;8530;49.540;8.576;2023-10-13T11:58:37;28.90;35.30
16827;DHT22;8530;49.540;8.576;2023-10-13T12:01:04;29.00;35.30
16827;DHT22;8530;49.540;8.576;2023-10-13T12:03:48;29.10;35.10
16827;DHT22;8530;49.540;8.576;2023-10-13T12:06:34;29.20;34.90
16827;DHT22;8530;49.540;8.576;2023-10-13T12:09:12;29.30;34.80
16827;DHT22;8530;49.540;8.576;2023-10-13T12:11:57;29.30;34.60
16827;DHT22;8530;49.540;8.576;2023-10-13T12:14:26;29.50;34.60
16827;DHT22;8530;49.540;8.576;2023-10-13T12:16:55;29.60;34.40
16827;DHT22;8530;49.540;8.576;2023-10-13T12:19:30;29.70;34.30
16827;DHT22;8530;49.540;8.576;2023-10-13T12:21:57;29.70;34.00
16827;DHT22;8530;49.540;8.576;2023-10-13T12:24:29;29.70;33.90
16827;DHT22;8530;49.540;8.576;2023-10-13T12:27:06;29.80;33.80
16827;DHT22;8530;49.540;8.576;2023-10-13T12:29:44;29.90;33.70
16827;DHT22;8530;49.540;8.576;2023-10-13T12:32:11;29.80;33.50
16827;DHT22;8530;49.540;8.576;2023-10-13T12:34:41;29.60;33.50
16827;DHT22;8530;49.540;8.576;2023-10-13T12:37:26;29.50;33.60
16827;DHT22;8530;49.540;8.576;2023-10-13T12:40:17;29.50;33.70
16827;DHT22;8530;49.540;8.576;2023-10-13T12:43:01;29.70;34.10
16827;DHT22;8530;49.540;8.576;2023-10-13T12:45:47;29.80;33.30
16827;DHT22;8530;49.540;8.576;2023-10-13T12:48:42;30.00;33.20
16827;DHT22;8530;49.540;8.576;2023-10-13T12:51:31;29.90;33.00
16827;DHT22;8530;49.540;8.576;2023-10-13T12:54:16;29.80;32.80
16827;DHT22;8530;49.540;8.576;2023-10-13T12:56:45;29.80;32.60
16827;DHT22;8530;49.540;8.576;2023-10-13T12:59:12;29.90;32.70
16827;DHT22;8530;49.540;8.576;2023-10-13T13:01:40;29.90;32.60
16827;DHT22;8530;49.540;8.576;2023-10-13T13:04:08;30.10;32.50
16827;DHT22;8530;49.540;8.576;2023-10-13T13:06:39;30.20;32.90
16827;DHT22;8530;49.540;8.576;2023-10-13T13:09:06;30.60;32.10
16827;DHT22;8530;49.540;8.576;2023-10-13T13:11:35;30.80;31.90
16827;DHT22;8530;49.540;8.576;2023-10-13T13:14:05;30.90;31.50
16827;DHT22;8530;49.540;8.576;2023-10-13T13:16:33;31.10;31.40
16827;DHT22;8530;49.540;8.576;2023-10-13T13:19:00;31.20;31.30
16827;DHT22;8530;49.540;8.576;2023-10-13T13:21:35;31.30;31.00
16827;DHT22;8530;49.540;8.576;2023-10-13T13:24:04;31.20;31.30
16827;DHT22;8530;49.540;8.576;2023-10-13T13:26:36;31.20;30.50
16827;DHT22;8530;49.540;8.576;2023-10-13T13:29:06;31.20;30.50
16827;DHT22;8530;49.540;8.576;2023-10-13T13:31:34;31.10;30.30
16827;DHT22;8530;49.540;8.576;2023-10-13T13:34:06;31.00;30.00
16827;DHT22;8530;49.540;8.576;2023-10-13T13:36:35;30.90;30.10
16827;DHT22;8530;49.540;8.576;2023-10-13T13:39:03;30.70;30.00
16827;DHT22;8530;49.540;8.576;2023-10-13T13:41:31;30.60;30.00
16827;DHT22;8530;49.540;8.576;2023-10-13T13:43:58;30.30;30.00
16827;DHT22;8530;49.540;8.576;2023-10-13T13:46:39;30.20;30.10
16827;DHT22;8530;49.540;8.576;2023-10-13T13:49:08;30.10;30.30
16827;DHT22;8530;49.540;8.576;2023-10-13T13:51:43;30.10;30.40
16827;DHT22;8530;49.540;8.576;2023-10-13T13:54:18;30.20;30.40
16827;DHT22;8530;49.540;8.576;2023-10-13T13:56:46;30.30;30.30
16827;DHT22;8530;49.540;8.576;2023-10-13T13:59:13;30.30;30.20
16827;DHT22;8530;49.540;8.576;2023-10-13T14:01:45;30.30;30.20
16827;DHT22;8530;49.540;8.576;2023-10-13T14:04:12;30.30;30.10
16827;DHT22;8530;49.540;8.576;2023-10-13T14:06:43;30.20;30.10
16827;DHT22;8530;49.540;8.576;2023-10-13T14:09:12;30.00;30.10
16827;DHT22;8530;49.540;8.576;2023-10-13T14:11:59;29.60;30.20
16827;DHT22;8530;49.540;8.576;2023-10-13T14:14:55;29.40;30.40
16827;DHT22;8530;49.540;8.576;2023-10-13T14:17:21;29.30;30.60
16827;DHT22;8530;49.540;8.576;2023-10-13T14:19:51;29.20;30.60
16827;DHT22;8530;49.540;8.576;2023-10-13T14:22:20;29.10;30.70
16827;DHT22;8530;49.540;8.576;2023-10-13T14:24:50;29.00;30.80
16827;DHT22;8530;49.540;8.576;2023-10-13T14:27:22;29.00;30.90
16827;DHT22;8530;49.540;8.576;2023-10-13T14:29:54;29.00;31.00
16827;DHT22;8530;49.540;8.576;2023-10-13T14:32:22;29.10;31.10
16827;DHT22;8530;49.540;8.576;2023-10-13T14:34:54;29.30;31.20
16827;DHT22;8530;49.540;8.576;2023-10-13T14:37:22;29.40;31.10
16827;DHT22;8530;49.540;8.576;2023-10-13T14:39:54;29.50;31.00
16827;DHT22;8530;49.540;8.576;2023-10-13T14:42:24;29.60;30.80
16827;DHT22;8530;49.540;8.576;2023-10-13T14:44:51;29.70;30.70
16827;DHT22;8530;49.540;8.576;2023-10-13T14:47:22;29.60;30.50
16827;DHT22;8530;49.540;8.576;2023-10-13T14:49:51;29.60;30.40
16827;DHT22;8530;49.540;8.576;2023-10-13T14:52:20;29.60;30.40
16827;DHT22;8530;49.540;8.576;2023-10-13T14:54:49;29.50;30.20
16827;DHT22;8530;49.540;8.576;2023-10-13T14:57:20;29.50;30.20
16827;DHT22;8530;49.540;8.576;2023-10-13T14:59:51;29.40;30.20
16827;DHT22;8530;49.540;8.576;2023-10-13T15:02:18;29.30;30.20
16827;DHT22;8530;49.540;8.576;2023-10-13T15:04:46;29.20;30.30
16827;DHT22;8530;49.540;8.576;2023-10-13T15:07:15;29.10;30.30
16827;DHT22;8530;49.540;8.576;2023-10-13T15:09:43;29.00;30.50
16827;DHT22;8530;49.540;8.576;2023-10-13T15:12:09;28.90;30.50
16827;DHT22;8530;49.540;8.576;2023-10-13T15:14:37;28.80;30.50
16827;DHT22;8530;49.540;8.576;2023-10-13T15:17:06;28.70;30.60
16827;DHT22;8530;49.540;8.576;2023-10-13T15:19:32;28.70;30.70
16827;DHT22;8530;49.540;8.576;2023-10-13T15:22:02;28.60;30.70
16827;DHT22;8530;49.540;8.576;2023-10-13T15:24:31;28.50;30.80
16827;DHT22;8530;49.540;8.576;2023-10-13T15:27:01;28.40;30.80
16827;DHT22;8530;49.540;8.576;2023-10-13T15:29:30;28.40;31.00
16827;DHT22;8530;49.540;8.576;2023-10-13T15:32:02;28.30;31.10
16827;DHT22;8530;49.540;8.576;2023-10-13T15:34:52;28.20;31.30
16827;DHT22;8530;49.540;8.576;2023-10-13T15:37:19;28.10;31.40
16827;DHT22;8530;49.540;8.576;2023-10-13T15:39:50;28.10;31.50
16827;DHT22;8530;49.540;8.576;2023-10-13T15:42:17;28.00;31.70
16827;DHT22;8530;49.540;8.576;2023-10-13T15:44:46;27.80;31.70
16827;DHT22;8530;49.540;8.576;2023-10-13T15:47:14;27.70;31.90
16827;DHT22;8530;49.540;8.576;2023-10-13T15:49:40;27.50;32.00
16827;DHT22;8530;49.540;8.576;2023-10-13T15:52:09;27.40;32.10
16827;DHT22;8530;49.540;8.576;2023-10-13T15:54:35;27.30;32.30
16827;DHT22;8530;49.540;8.576;2023-10-13T15:57:02;27.10;32.40
16827;DHT22;8530;49.540;8.576;2023-10-13T15:59:32;26.90;32.60
16827;DHT22;8530;49.540;8.576;2023-10-13T16:01:59;26.80;32.70
16827;DHT22;8530;49.540;8.576;2023-10-13T16:04:26;26.60;33.40
16827;DHT22;8530;49.540;8.576;2023-10-13T16:06:53;26.40;33.00
16827;DHT22;8530;49.540;8.576;2023-10-13T16:09:21;26.30;33.20
16827;DHT22;8530;49.540;8.576;2023-10-13T16:11:49;26.10;33.40
16827;DHT22;8530;49.540;8.576;2023-10-13T16:14:17;26.00;33.60
16827;DHT22;8530;49.540;8.576;2023-10-13T16:16:45;25.80;33.70
16827;DHT22;8530;49.540;8.576;2023-10-13T16:19:13;25.70;33.90
16827;DHT22;8530;49.540;8.576;2023-10-13T16:21:43;25.50;34.20
16827;DHT22;8530;49.540;8.576;2023-10-13T16:24:11;25.40;34.40